sensor_id;sensor_type;location;lat;lon;timestamp;P1;durP1;ratioP1;P2;durP2;ratioP2
2053;SDS011;1032;52.542;13.440;2022-07-22T00:02:13;7.10;;;6.50;;
2053;SDS011;1032;52.542;13.440;2022-07-22T00:04:39;9.23;;;7.03;;
2053;SDS011;1032;52.542;13.440;2022-07-22T00:07:06;7.60;;;6.87;;
2053;SDS011;1032;52.542;13.440;2022-07-22T00:09:34;6.70;;;5.97;;
2053;SDS011;1032;52.542;13.440;2022-07-22T00:12:00;6.80;;;6.30;;
2053;SDS011;1032;52.542;13.440;2022-07-22T00:14:27;7.93;;;7.13;;
2053;SDS011;1032;52.542;13.440;2022-07-22T00:16:54;7.27;;;6.20;;
2053;SDS011;1032;52.542;13.440;2022-07-22T00:19:20;7.20;;;6.53;;
2053;SDS011;1032;52.542;13.440;2022-07-22T00:21:49;7.27;;;6.43;;
2053;SDS011;1032;52.542;13.440;2022-07-22T00:24:15;8.10;;;6.40;;
2053;SDS011;1032;52.542;13.440;2022-07-22T00:26:43;6.83;;;6.33;;
2053;SDS011;1032;52.542;13.440;2022-07-22T00:29:11;8.53;;;6.90;;
2053;SDS011;1032;52.542;13.440;2022-07-22T00:31:38;6.80;;;6.20;;
2053;SDS011;1032;52.542;13.440;2022-07-22T00:34:04;7.30;;;6.00;;
2053;SDS011;1032;52.542;13.440;2022-07-22T00:36:32;7.80;;;6.17;;
2053;SDS011;1032;52.542;13.440;2022-07-22T00:39:02;7.20;;;6.50;;
2053;SDS011;1032;52.542;13.440;2022-07-22T00:41:28;6.30;;;5.80;;
2053;SDS011;1032;52.542;13.440;2022-07-22T00:43:58;7.03;;;6.33;;
2053;SDS011;1032;52.542;13.440;2022-07-22T00:46:25;6.43;;;5.83;;
2053;SDS011;1032;52.542;13.440;2022-07-22T00:48:53;6.27;;;5.67;;
2053;SDS011;1032;52.542;13.440;2022-07-22T00:51:20;6.43;;;5.70;;
2053;SDS011;1032;52.542;13.440;2022-07-22T00:53:48;6.17;;;5.57;;
2053;SDS011;1032;52.542;13.440;2022-07-22T00:56:15;7.10;;;5.20;;
2053;SDS011;1032;52.542;13.440;2022-07-22T00:58:43;5.63;;;5.10;;
2053;SDS011;1032;52.542;13.440;2022-07-22T01:01:12;6.33;;;5.57;;
2053;SDS011;1032;52.542;13.440;2022-07-22T01:03:39;5.83;;;5.23;;
2053;SDS011;1032;52.542;13.440;2022-07-22T01:06:07;7.07;;;5.60;;
2053;SDS011;1032;52.542;13.440;2022-07-22T01:08:34;6.43;;;5.70;;
2053;SDS011;1032;52.542;13.440;2022-07-22T01:11:07;6.13;;;5.60;;
2053;SDS011;1032;52.542;13.440;2022-07-22T01:13:34;6.53;;;5.87;;
2053;SDS011;1032;52.542;13.440;2022-07-22T01:18:49;7.67;;;6.50;;
2053;SDS011;1032;52.542;13.440;2022-07-22T01:21:19;5.97;;;5.37;;
2053;SDS011;1032;52.542;13.440;2022-07-22T01:23:46;5.60;;;5.10;;
2053;SDS011;1032;52.542;13.440;2022-07-22T01:26:14;6.20;;;5.60;;
2053;SDS011;1032;52.542;13.440;2022-07-22T01:28:42;7.57;;;4.80;;
2053;SDS011;1032;52.542;13.440;2022-07-22T01:31:09;6.47;;;5.27;;
2053;SDS011;1032;52.542;13.440;2022-07-22T01:33:36;5.83;;;5.33;;
2053;SDS011;1032;52.542;13.440;2022-07-22T01:36:03;6.40;;;4.70;;
2053;SDS011;1032;52.542;13.440;2022-07-22T01:38:33;5.67;;;5.07;;
2053;SDS011;1032;52.542;13.440;2022-07-22T01:41:00;6.70;;;4.90;;
2053;SDS011;1032;52.542;13.440;2022-07-22T01:43:27;6.03;;;4.40;;
2053;SDS011;1032;52.542;13.440;2022-07-22T01:45:54;5.20;;;4.70;;
2053;SDS011;1032;52.542;13.440;2022-07-22T01:48:21;6.30;;;4.90;;
2053;SDS011;1032;52.542;13.440;2022-07-22T01:50:49;5.40;;;4.90;;
2053;SDS011;1032;52.542;13.440;2022-07-22T01:53:16;6.00;;;4.63;;
2053;SDS011;1032;52.542;13.440;2022-07-22T01:55:46;5.80;;;5.00;;
2053;SDS011;1032;52.542;13.440;2022-07-22T01:58:15;7.63;;;5.40;;
2053;SDS011;1032;52.542;13.440;2022-07-22T02:00:42;5.40;;;4.90;;
2053;SDS011;1032;52.542;13.440;2022-07-22T02:03:09;6.50;;;5.03;;
2053;SDS011;1032;52.542;13.440;2022-07-22T02:05:36;7.87;;;5.10;;
2053;SDS011;1032;52.542;13.440;2022-07-22T02:08:14;4.83;;;4.43;;
2053;SDS011;1032;52.542;13.440;2022-07-22T02:11:05;5.40;;;4.90;;
2053;SDS011;1032;52.542;13.440;2022-07-22T02:13:34;5.47;;;5.00;;
2053;SDS011;1032;52.542;13.440;2022-07-22T02:16:01;5.53;;;5.03;;
2053;SDS011;1032;52.542;13.440;2022-07-22T02:18:28;5.83;;;5.33;;
2053;SDS011;1032;52.542;13.440;2022-07-22T02:20:54;5.10;;;4.60;;
2053;SDS011;1032;52.542;13.440;2022-07-22T02:23:21;7.07;;;5.40;;
2053;SDS011;1032;52.542;13.440;2022-07-22T02:25:48;5.27;;;4.87;;
2053;SDS011;1032;52.542;13.440;2022-07-22T02:28:17;5.83;;;5.33;;
2053;SDS011;1032;52.542;13.440;2022-07-22T02:30:44;8.47;;;5.67;;
2053;SDS011;1032;52.542;13.440;2022-07-22T02:33:11;6.50;;;5.33;;
2053;SDS011;1032;52.542;13.440;2022-07-22T02:35:39;7.37;;;5.90;;
2053;SDS011;1032;52.542;13.440;2022-07-22T02:38:06;6.13;;;5.53;;
2053;SDS011;1032;52.542;13.440;2022-07-22T02:40:34;6.20;;;5.60;;
2053;SDS011;1032;52.542;13.440;2022-07-22T02:43:00;9.60;;;5.60;;
2053;SDS011;1032;52.542;13.440;2022-07-22T02:45:29;7.80;;;7.00;;
2053;SDS011;1032;52.542;13.440;2022-07-22T02:47:56;6.00;;;5.50;;
2053;SDS011;1032;52.542;13.440;2022-07-22T02:50:24;8.40;;;5.40;;
2053;SDS011;1032;52.542;13.440;2022-07-22T02:52:50;6.67;;;6.10;;
2053;SDS011;1032;52.542;13.440;2022-07-22T02:55:18;6.80;;;6.20;;
2053;SDS011;1032;52.542;13.440;2022-07-22T02:57:47;7.00;;;6.30;;
2053;SDS011;1032;52.542;13.440;2022-07-22T03:00:14;7.40;;;6.23;;
2053;SDS011;1032;52.542;13.440;2022-07-22T03:02:45;7.00;;;6.40;;
2053;SDS011;1032;52.542;13.440;2022-07-22T03:05:12;7.83;;;7.00;;
2053;SDS011;1032;52.542;13.440;2022-07-22T03:07:47;7.33;;;6.63;;
2053;SDS011;1032;52.542;13.440;2022-07-22T03:10:14;7.90;;;6.50;;
2053;SDS011;1032;52.542;13.440;2022-07-22T03:12:40;7.77;;;7.03;;
2053;SDS011;1032;52.542;13.440;2022-07-22T03:15:08;7.77;;;7.17;;
2053;SDS011;1032;52.542;13.440;2022-07-22T03:17:35;8.17;;;7.40;;
2053;SDS011;1032;52.542;13.440;2022-07-22T03:20:07;10.20;;;7.63;;
2053;SDS011;1032;52.542;13.440;2022-07-22T03:22:35;8.20;;;7.40;;
2053;SDS011;1032;52.542;13.440;2022-07-22T03:25:04;8.90;;;7.50;;
2053;SDS011;1032;52.542;13.440;2022-07-22T03:27:31;8.10;;;7.30;;
2053;SDS011;1032;52.542;13.440;2022-07-22T03:29:57;8.23;;;7.43;;
2053;SDS011;1032;52.542;13.440;2022-07-22T03:32:24;7.87;;;7.20;;
2053;SDS011;1032;52.542;13.440;2022-07-22T03:34:51;8.27;;;7.53;;
2053;SDS011;1032;52.542;13.440;2022-07-22T03:37:19;8.60;;;7.70;;
2053;SDS011;1032;52.542;13.440;2022-07-22T03:39:46;8.80;;;8.00;;
2053;SDS011;1032;52.542;13.440;2022-07-22T03:42:13;8.77;;;7.97;;
2053;SDS011;1032;52.542;13.440;2022-07-22T03:44:46;8.20;;;7.50;;
2053;SDS011;1032;52.542;13.440;2022-07-22T03:47:16;8.80;;;8.00;;
2053;SDS011;1032;52.542;13.440;2022-07-22T03:49:45;8.10;;;7.40;;
2053;SDS011;1032;52.542;13.440;2022-07-22T03:52:13;9.07;;;7.77;;
2053;SDS011;1032;52.542;13.440;2022-07-22T03:54:41;8.60;;;7.70;;
2053;SDS011;1032;52.542;13.440;2022-07-22T03:57:08;10.00;;;9.10;;
2053;SDS011;1032;52.542;13.440;2022-07-22T03:59:35;8.90;;;8.10;;
2053;SDS011;1032;52.542;13.440;2022-07-22T04:02:03;9.37;;;8.57;;
2053;SDS011;1032;52.542;13.440;2022-07-22T04:04:30;9.70;;;8.70;;
2053;SDS011;1032;52.542;13.440;2022-07-22T04:06:58;10.80;;;9.90;;
2053;SDS011;1032;52.542;13.440;2022-07-22T04:09:31;10.70;;;9.73;;
2053;SDS011;1032;52.542;13.440;2022-07-22T04:11:59;10.10;;;9.10;;
2053;SDS011;1032;52.542;13.440;2022-07-22T04:14:26;8.73;;;8.03;;
2053;SDS011;1032;52.542;13.440;2022-07-22T04:16:56;10.23;;;9.40;;
2053;SDS011;1032;52.542;13.440;2022-07-22T04:19:22;10.43;;;9.53;;
2053;SDS011;1032;52.542;13.440;2022-07-22T04:21:52;11.80;;;9.20;;
2053;SDS011;1032;52.542;13.440;2022-07-22T04:24:20;10.97;;;9.83;;
2053;SDS011;1032;52.542;13.440;2022-07-22T04:26:47;11.17;;;8.63;;
2053;SDS011;1032;52.542;13.440;2022-07-22T04:29:16;9.47;;;8.70;;
2053;SDS011;1032;52.542;13.440;2022-07-22T04:31:43;11.83;;;10.80;;
2053;SDS011;1032;52.542;13.440;2022-07-22T04:34:13;10.93;;;9.83;;
2053;SDS011;1032;52.542;13.440;2022-07-22T04:36:40;11.07;;;10.17;;
2053;SDS011;1032;52.542;13.440;2022-07-22T04:39:07;10.87;;;9.80;;
2053;SDS011;1032;52.542;13.440;2022-07-22T04:41:35;11.83;;;10.70;;
2053;SDS011;1032;52.542;13.440;2022-07-22T04:44:03;13.10;;;10.70;;
2053;SDS011;1032;52.542;13.440;2022-07-22T04:46:33;12.83;;;11.53;;
2053;SDS011;1032;52.542;13.440;2022-07-22T04:48:59;12.20;;;11.00;;
2053;SDS011;1032;52.542;13.440;2022-07-22T04:51:26;11.27;;;10.30;;
2053;SDS011;1032;52.542;13.440;2022-07-22T04:54:00;12.90;;;11.50;;
2053;SDS011;1032;52.542;13.440;2022-07-22T04:56:26;13.17;;;12.07;;
2053;SDS011;1032;52.542;13.440;2022-07-22T04:58:54;12.97;;;11.80;;
2053;SDS011;1032;52.542;13.440;2022-07-22T05:01:25;13.80;;;12.50;;
2053;SDS011;1032;52.542;13.440;2022-07-22T05:03:54;12.30;;;11.10;;
2053;SDS011;1032;52.542;13.440;2022-07-22T05:06:21;13.37;;;11.97;;
2053;SDS011;1032;52.542;13.440;2022-07-22T05:08:50;13.10;;;11.93;;
2053;SDS011;1032;52.542;13.440;2022-07-22T05:11:18;12.93;;;11.70;;
2053;SDS011;1032;52.542;13.440;2022-07-22T05:13:46;13.13;;;11.80;;
2053;SDS011;1032;52.542;13.440;2022-07-22T05:16:13;13.73;;;11.70;;
2053;SDS011;1032;52.542;13.440;2022-07-22T05:18:40;12.90;;;11.70;;
2053;SDS011;1032;52.542;13.440;2022-07-22T05:21:11;12.60;;;11.30;;
2053;SDS011;1032;52.542;13.440;2022-07-22T05:23:38;12.87;;;11.77;;
2053;SDS011;1032;52.542;13.440;2022-07-22T05:26:05;14.20;;;12.90;;
2053;SDS011;1032;52.542;13.440;2022-07-22T05:28:32;12.43;;;11.33;;
2053;SDS011;1032;52.542;13.440;2022-07-22T05:31:00;12.00;;;10.90;;
2053;SDS011;1032;52.542;13.440;2022-07-22T05:33:27;12.90;;;11.80;;
2053;SDS011;1032;52.542;13.440;2022-07-22T05:36:01;15.50;;;12.07;;
2053;SDS011;1032;52.542;13.440;2022-07-22T05:38:36;12.60;;;11.50;;
2053;SDS011;1032;52.542;13.440;2022-07-22T05:41:04;18.00;;;14.73;;
2053;SDS011;1032;52.542;13.440;2022-07-22T05:43:31;13.23;;;11.83;;
2053;SDS011;1032;52.542;13.440;2022-07-22T05:45:59;13.47;;;12.13;;
2053;SDS011;1032;52.542;13.440;2022-07-22T05:48:26;16.17;;;11.03;;
2053;SDS011;1032;52.542;13.440;2022-07-22T05:50:53;13.17;;;12.07;;
2053;SDS011;1032;52.542;13.440;2022-07-22T05:53:19;11.90;;;10.70;;
2053;SDS011;1032;52.542;13.440;2022-07-22T05:55:48;11.43;;;10.40;;
2053;SDS011;1032;52.542;13.440;2022-07-22T05:58:14;11.73;;;10.60;;
2053;SDS011;1032;52.542;13.440;2022-07-22T06:00:41;14.47;;;11.67;;
2053;SDS011;1032;52.542;13.440;2022-07-22T06:03:08;11.77;;;10.70;;
2053;SDS011;1032;52.542;13.440;2022-07-22T06:05:34;13.57;;;10.90;;
2053;SDS011;1032;52.542;13.440;2022-07-22T06:08:02;10.80;;;9.90;;
2053;SDS011;1032;52.542;13.440;2022-07-22T06:10:37;12.23;;;10.60;;
2053;SDS011;1032;52.542;13.440;2022-07-22T06:13:05;11.27;;;10.27;;
2053;SDS011;1032;52.542;13.440;2022-07-22T06:15:31;11.87;;;10.70;;
2053;SDS011;1032;52.542;13.440;2022-07-22T06:18:00;12.70;;;11.50;;
2053;SDS011;1032;52.542;13.440;2022-07-22T06:20:26;13.80;;;10.67;;
2053;SDS011;1032;52.542;13.440;2022-07-22T06:22:53;12.23;;;11.13;;
2053;SDS011;1032;52.542;13.440;2022-07-22T06:25:21;11.10;;;10.10;;
2053;SDS011;1032;52.542;13.440;2022-07-22T06:27:48;13.63;;;9.37;;
2053;SDS011;1032;52.542;13.440;2022-07-22T06:30:17;10.50;;;9.53;;
2053;SDS011;1032;52.542;13.440;2022-07-22T06:32:43;15.23;;;10.57;;
2053;SDS011;1032;52.542;13.440;2022-07-22T06:35:10;13.20;;;11.90;;
2053;SDS011;1032;52.542;13.440;2022-07-22T06:37:37;11.27;;;10.07;;
2053;SDS011;1032;52.542;13.440;2022-07-22T06:40:04;11.40;;;10.40;;
2053;SDS011;1032;52.542;13.440;2022-07-22T06:42:46;10.70;;;9.60;;
2053;SDS011;1032;52.542;13.440;2022-07-22T06:45:34;10.80;;;10.00;;
2053;SDS011;1032;52.542;13.440;2022-07-22T06:48:04;13.23;;;10.90;;
2053;SDS011;1032;52.542;13.440;2022-07-22T06:50:31;12.20;;;11.00;;
2053;SDS011;1032;52.542;13.440;2022-07-22T06:53:01;11.40;;;10.40;;
2053;SDS011;1032;52.542;13.440;2022-07-22T06:55:29;11.07;;;10.03;;
2053;SDS011;1032;52.542;13.440;2022-07-22T06:58:02;11.60;;;10.70;;
2053;SDS011;1032;52.542;13.440;2022-07-22T07:00:29;10.40;;;9.60;;
2053;SDS011;1032;52.542;13.440;2022-07-22T07:03:15;10.70;;;9.80;;
2053;SDS011;1032;52.542;13.440;2022-07-22T07:05:42;10.83;;;9.83;;
2053;SDS011;1032;52.542;13.440;2022-07-22T07:08:09;14.13;;;12.73;;
2053;SDS011;1032;52.542;13.440;2022-07-22T07:10:36;9.70;;;8.90;;
2053;SDS011;1032;52.542;13.440;2022-07-22T07:13:11;10.07;;;9.10;;
2053;SDS011;1032;52.542;13.440;2022-07-22T07:15:40;10.30;;;9.20;;
2053;SDS011;1032;52.542;13.440;2022-07-22T07:18:09;9.70;;;8.70;;
2053;SDS011;1032;52.542;13.440;2022-07-22T07:20:37;9.67;;;8.77;;
2053;SDS011;1032;52.542;13.440;2022-07-22T07:23:06;14.23;;;9.53;;
2053;SDS011;1032;52.542;13.440;2022-07-22T07:25:37;10.30;;;9.40;;
2053;SDS011;1032;52.542;13.440;2022-07-22T07:28:04;12.53;;;10.07;;
2053;SDS011;1032;52.542;13.440;2022-07-22T07:30:45;9.20;;;8.40;;
2053;SDS011;1032;52.542;13.440;2022-07-22T07:33:12;10.43;;;9.33;;
2053;SDS011;1032;52.542;13.440;2022-07-22T07:35:40;9.00;;;8.10;;
2053;SDS011;1032;52.542;13.440;2022-07-22T07:38:07;8.83;;;7.93;;
2053;SDS011;1032;52.542;13.440;2022-07-22T07:40:35;10.87;;;9.57;;
2053;SDS011;1032;52.542;13.440;2022-07-22T07:43:02;10.50;;;7.97;;
2053;SDS011;1032;52.542;13.440;2022-07-22T07:45:30;8.40;;;7.67;;
2053;SDS011;1032;52.542;13.440;2022-07-22T07:47:58;8.10;;;7.30;;
2053;SDS011;1032;52.542;13.440;2022-07-22T07:50:26;8.77;;;7.90;;
2053;SDS011;1032;52.542;13.440;2022-07-22T07:52:55;11.63;;;8.00;;
2053;SDS011;1032;52.542;13.440;2022-07-22T07:55:24;9.07;;;7.60;;
2053;SDS011;1032;52.542;13.440;2022-07-22T07:57:51;8.27;;;7.47;;
2053;SDS011;1032;52.542;13.440;2022-07-22T08:00:20;8.70;;;7.90;;
2053;SDS011;1032;52.542;13.440;2022-07-22T08:02:49;7.47;;;6.77;;
2053;SDS011;1032;52.542;13.440;2022-07-22T08:05:17;7.90;;;7.20;;
2053;SDS011;1032;52.542;13.440;2022-07-22T08:07:44;7.47;;;6.80;;
2053;SDS011;1032;52.542;13.440;2022-07-22T08:10:12;8.40;;;5.90;;
2053;SDS011;1032;52.542;13.440;2022-07-22T08:12:55;6.43;;;5.93;;
2053;SDS011;1032;52.542;13.440;2022-07-22T08:15:41;7.10;;;6.37;;
2053;SDS011;1032;52.542;13.440;2022-07-22T08:18:15;6.50;;;6.00;;
2053;SDS011;1032;52.542;13.440;2022-07-22T08:20:42;7.80;;;6.83;;
2053;SDS011;1032;52.542;13.440;2022-07-22T08:23:10;6.60;;;6.00;;
2053;SDS011;1032;52.542;13.440;2022-07-22T08:25:41;6.27;;;5.70;;
2053;SDS011;1032;52.542;13.440;2022-07-22T08:28:08;7.17;;;6.13;;
2053;SDS011;1032;52.542;13.440;2022-07-22T08:30:34;5.93;;;5.43;;
2053;SDS011;1032;52.542;13.440;2022-07-22T08:33:01;7.70;;;7.00;;
2053;SDS011;1032;52.542;13.440;2022-07-22T08:35:28;6.70;;;6.00;;
2053;SDS011;1032;52.542;13.440;2022-07-22T08:37:55;7.17;;;5.70;;
2053;SDS011;1032;52.542;13.440;2022-07-22T08:40:22;6.00;;;5.40;;
2053;SDS011;1032;52.542;13.440;2022-07-22T08:42:51;9.10;;;5.30;;
2053;SDS011;1032;52.542;13.440;2022-07-22T08:45:18;6.07;;;5.47;;
2053;SDS011;1032;52.542;13.440;2022-07-22T08:47:47;6.37;;;5.77;;
2053;SDS011;1032;52.542;13.440;2022-07-22T08:50:23;4.60;;;4.10;;
2053;SDS011;1032;52.542;13.440;2022-07-22T08:52:55;5.90;;;5.30;;
2053;SDS011;1032;52.542;13.440;2022-07-22T08:55:22;6.67;;;5.80;;
2053;SDS011;1032;52.542;13.440;2022-07-22T08:57:51;6.17;;;4.97;;
2053;SDS011;1032;52.542;13.440;2022-07-22T09:00:19;7.57;;;5.40;;
2053;SDS011;1032;52.542;13.440;2022-07-22T09:02:48;6.10;;;5.60;;
2053;SDS011;1032;52.542;13.440;2022-07-22T09:05:15;6.43;;;5.83;;
2053;SDS011;1032;52.542;13.440;2022-07-22T09:07:44;6.63;;;5.93;;
2053;SDS011;1032;52.542;13.440;2022-07-22T09:10:17;7.13;;;6.20;;
2053;SDS011;1032;52.542;13.440;2022-07-22T09:13:06;7.23;;;6.13;;
2053;SDS011;1032;52.542;13.440;2022-07-22T09:15:54;5.20;;;4.73;;
2053;SDS011;1032;52.542;13.440;2022-07-22T09:18:44;6.23;;;5.20;;
2053;SDS011;1032;52.542;13.440;2022-07-22T09:21:30;5.67;;;4.30;;
2053;SDS011;1032;52.542;13.440;2022-07-22T09:24:28;4.60;;;4.20;;
2053;SDS011;1032;52.542;13.440;2022-07-22T09:27:06;5.27;;;4.77;;
2053;SDS011;1032;52.542;13.440;2022-07-22T09:29:49;5.77;;;5.27;;
2053;SDS011;1032;52.542;13.440;2022-07-22T09:32:18;6.73;;;4.43;;
2053;SDS011;1032;52.542;13.440;2022-07-22T09:35:02;5.27;;;4.73;;
2053;SDS011;1032;52.542;13.440;2022-07-22T09:37:37;6.30;;;4.20;;
2053;SDS011;1032;52.542;13.440;2022-07-22T09:40:13;5.10;;;4.43;;
2053;SDS011;1032;52.542;13.440;2022-07-22T09:42:44;6.67;;;5.70;;
2053;SDS011;1032;52.542;13.440;2022-07-22T09:45:13;5.77;;;5.27;;
2053;SDS011;1032;52.542;13.440;2022-07-22T09:47:41;5.33;;;4.83;;
2053;SDS011;1032;52.542;13.440;2022-07-22T09:50:29;5.20;;;4.47;;
2053;SDS011;1032;52.542;13.440;2022-07-22T09:53:12;8.10;;;4.30;;
2053;SDS011;1032;52.542;13.440;2022-07-22T09:55:44;5.80;;;4.80;;
2053;SDS011;1032;52.542;13.440;2022-07-22T09:58:11;4.00;;;3.70;;
2053;SDS011;1032;52.542;13.440;2022-07-22T10:00:40;3.57;;;3.27;;
2053;SDS011;1032;52.542;13.440;2022-07-22T10:03:10;3.73;;;3.43;;
2053;SDS011;1032;52.542;13.440;2022-07-22T10:05:39;3.63;;;3.33;;
2053;SDS011;1032;52.542;13.440;2022-07-22T10:08:08;5.73;;;3.87;;
2053;SDS011;1032;52.542;13.440;2022-07-22T10:10:36;4.40;;;4.00;;
2053;SDS011;1032;52.542;13.440;2022-07-22T10:13:05;4.40;;;4.00;;
2053;SDS011;1032;52.542;13.440;2022-07-22T10:15:35;6.30;;;4.33;;
2053;SDS011;1032;52.542;13.440;2022-07-22T10:18:06;6.47;;;3.60;;
2053;SDS011;1032;52.542;13.440;2022-07-22T10:20:37;7.40;;;3.60;;
2053;SDS011;1032;52.542;13.440;2022-07-22T10:23:04;4.67;;;3.23;;
2053;SDS011;1032;52.542;13.440;2022-07-22T10:25:33;2.83;;;2.63;;
2053;SDS011;1032;52.542;13.440;2022-07-22T10:28:20;3.37;;;2.90;;
2053;SDS011;1032;52.542;13.440;2022-07-22T10:30:48;3.27;;;2.77;;
2053;SDS011;1032;52.542;13.440;2022-07-22T10:33:20;3.73;;;3.33;;
2053;SDS011;1032;52.542;13.440;2022-07-22T10:35:55;3.00;;;2.70;;
2053;SDS011;1032;52.542;13.440;2022-07-22T10:38:23;5.90;;;3.53;;
2053;SDS011;1032;52.542;13.440;2022-07-22T10:40:52;3.40;;;3.10;;
2053;SDS011;1032;52.542;13.440;2022-07-22T10:43:22;4.10;;;3.70;;
2053;SDS011;1032;52.542;13.440;2022-07-22T10:45:52;3.17;;;2.70;;
2053;SDS011;1032;52.542;13.440;2022-07-22T10:48:23;3.57;;;3.10;;
2053;SDS011;1032;52.542;13.440;2022-07-22T10:53:43;3.77;;;3.20;;
2053;SDS011;1032;52.542;13.440;2022-07-22T10:56:13;3.93;;;3.43;;
2053;SDS011;1032;52.542;13.440;2022-07-22T10:58:49;3.93;;;2.97;;
2053;SDS011;1032;52.542;13.440;2022-07-22T11:01:20;3.30;;;3.00;;
2053;SDS011;1032;52.542;13.440;2022-07-22T11:03:50;3.90;;;3.60;;
2053;SDS011;1032;52.542;13.440;2022-07-22T11:06:21;3.60;;;3.30;;
2053;SDS011;1032;52.542;13.440;2022-07-22T11:08:51;7.40;;;3.13;;
2053;SDS011;1032;52.542;13.440;2022-07-22T11:11:26;7.13;;;3.70;;
2053;SDS011;1032;52.542;13.440;2022-07-22T11:13:58;4.20;;;3.87;;
2053;SDS011;1032;52.542;13.440;2022-07-22T11:16:26;3.80;;;3.50;;
2053;SDS011;1032;52.542;13.440;2022-07-22T11:18:56;3.77;;;3.30;;
2053;SDS011;1032;52.542;13.440;2022-07-22T11:21:24;6.30;;;3.67;;
2053;SDS011;1032;52.542;13.440;2022-07-22T11:23:53;4.03;;;3.73;;
2053;SDS011;1032;52.542;13.440;2022-07-22T11:26:23;5.83;;;4.30;;
2053;SDS011;1032;52.542;13.440;2022-07-22T11:28:53;4.50;;;4.10;;
2053;SDS011;1032;52.542;13.440;2022-07-22T11:31:21;4.13;;;3.83;;
2053;SDS011;1032;52.542;13.440;2022-07-22T11:33:47;4.33;;;3.93;;
2053;SDS011;1032;52.542;13.440;2022-07-22T11:36:16;4.77;;;4.37;;
2053;SDS011;1032;52.542;13.440;2022-07-22T11:38:44;5.77;;;5.13;;
2053;SDS011;1032;52.542;13.440;2022-07-22T11:41:13;5.17;;;4.67;;
2053;SDS011;1032;52.542;13.440;2022-07-22T11:43:43;5.10;;;4.60;;
2053;SDS011;1032;52.542;13.440;2022-07-22T11:46:11;7.47;;;4.30;;
2053;SDS011;1032;52.542;13.440;2022-07-22T11:48:38;5.93;;;3.77;;
2053;SDS011;1032;52.542;13.440;2022-07-22T11:51:07;4.40;;;4.10;;
2053;SDS011;1032;52.542;13.440;2022-07-22T11:53:36;6.40;;;4.40;;
2053;SDS011;1032;52.542;13.440;2022-07-22T11:56:07;10.23;;;4.70;;
2053;SDS011;1032;52.542;13.440;2022-07-22T11:58:36;4.60;;;4.20;;
2053;SDS011;1032;52.542;13.440;2022-07-22T12:01:05;5.60;;;4.07;;
2053;SDS011;1032;52.542;13.440;2022-07-22T12:03:33;4.33;;;3.93;;
2053;SDS011;1032;52.542;13.440;2022-07-22T12:06:01;3.87;;;3.50;;
2053;SDS011;1032;52.542;13.440;2022-07-22T12:08:28;4.40;;;3.70;;
2053;SDS011;1032;52.542;13.440;2022-07-22T12:10:57;3.77;;;3.47;;
2053;SDS011;1032;52.542;13.440;2022-07-22T12:13:28;5.47;;;3.30;;
2053;SDS011;1032;52.542;13.440;2022-07-22T12:15:56;3.60;;;3.30;;
2053;SDS011;1032;52.542;13.440;2022-07-22T12:18:25;4.17;;;3.77;;
2053;SDS011;1032;52.542;13.440;2022-07-22T12:20:54;4.30;;;3.70;;
2053;SDS011;1032;52.542;13.440;2022-07-22T12:23:24;4.60;;;3.50;;
2053;SDS011;1032;52.542;13.440;2022-07-22T12:25:53;4.80;;;3.87;;
2053;SDS011;1032;52.542;13.440;2022-07-22T12:28:25;4.90;;;4.00;;
2053;SDS011;1032;52.542;13.440;2022-07-22T12:30:53;3.83;;;3.53;;
2053;SDS011;1032;52.542;13.440;2022-07-22T12:33:22;4.87;;;3.30;;
2053;SDS011;1032;52.542;13.440;2022-07-22T12:35:59;3.73;;;3.30;;
2053;SDS011;1032;52.542;13.440;2022-07-22T12:38:28;5.40;;;4.90;;
2053;SDS011;1032;52.542;13.440;2022-07-22T12:40:55;3.90;;;3.50;;
2053;SDS011;1032;52.542;13.440;2022-07-22T12:43:26;5.40;;;3.33;;
2053;SDS011;1032;52.542;13.440;2022-07-22T12:45:54;14.57;;;4.33;;
2053;SDS011;1032;52.542;13.440;2022-07-22T12:48:28;4.37;;;3.57;;
2053;SDS011;1032;52.542;13.440;2022-07-22T12:50:56;3.90;;;3.50;;
2053;SDS011;1032;52.542;13.440;2022-07-22T12:53:24;8.63;;;4.40;;
2053;SDS011;1032;52.542;13.440;2022-07-22T12:55:55;6.53;;;3.20;;
2053;SDS011;1032;52.542;13.440;2022-07-22T12:58:24;3.80;;;2.70;;
2053;SDS011;1032;52.542;13.440;2022-07-22T13:00:54;4.20;;;3.20;;
2053;SDS011;1032;52.542;13.440;2022-07-22T13:03:22;2.80;;;2.60;;
2053;SDS011;1032;52.542;13.440;2022-07-22T13:05:51;3.13;;;2.83;;
2053;SDS011;1032;52.542;13.440;2022-07-22T13:08:20;3.23;;;2.93;;
2053;SDS011;1032;52.542;13.440;2022-07-22T13:10:47;3.40;;;2.60;;
2053;SDS011;1032;52.542;13.440;2022-07-22T13:13:17;2.60;;;2.40;;
2053;SDS011;1032;52.542;13.440;2022-07-22T13:15:46;3.70;;;2.80;;
2053;SDS011;1032;52.542;13.440;2022-07-22T13:18:14;2.77;;;2.57;;
2053;SDS011;1032;52.542;13.440;2022-07-22T13:20:44;4.43;;;2.73;;
2053;SDS011;1032;52.542;13.440;2022-07-22T13:23:14;7.00;;;2.77;;
2053;SDS011;1032;52.542;13.440;2022-07-22T13:25:40;5.50;;;3.07;;
2053;SDS011;1032;52.542;13.440;2022-07-22T13:28:08;5.83;;;2.23;;
2053;SDS011;1032;52.542;13.440;2022-07-22T13:30:35;2.63;;;2.43;;
2053;SDS011;1032;52.542;13.440;2022-07-22T13:33:04;3.23;;;2.20;;
2053;SDS011;1032;52.542;13.440;2022-07-22T13:35:30;4.70;;;2.00;;
2053;SDS011;1032;52.542;13.440;2022-07-22T13:37:58;2.40;;;2.03;;
2053;SDS011;1032;52.542;13.440;2022-07-22T13:40:25;3.13;;;2.37;;
2053;SDS011;1032;52.542;13.440;2022-07-22T13:42:52;2.83;;;2.20;;
2053;SDS011;1032;52.542;13.440;2022-07-22T13:45:19;6.23;;;2.50;;
2053;SDS011;1032;52.542;13.440;2022-07-22T13:47:46;2.80;;;2.60;;
2053;SDS011;1032;52.542;13.440;2022-07-22T13:50:14;2.93;;;2.70;;
2053;SDS011;1032;52.542;13.440;2022-07-22T13:52:41;2.87;;;2.60;;
2053;SDS011;1032;52.542;13.440;2022-07-22T13:55:11;2.93;;;2.10;;
2053;SDS011;1032;52.542;13.440;2022-07-22T13:57:38;3.30;;;2.00;;
2053;SDS011;1032;52.542;13.440;2022-07-22T14:00:07;2.40;;;2.10;;
2053;SDS011;1032;52.542;13.440;2022-07-22T14:02:35;2.90;;;2.40;;
2053;SDS011;1032;52.542;13.440;2022-07-22T14:05:03;2.40;;;1.87;;
2053;SDS011;1032;52.542;13.440;2022-07-22T14:07:32;2.97;;;2.00;;
2053;SDS011;1032;52.542;13.440;2022-07-22T14:09:58;4.80;;;1.87;;
2053;SDS011;1032;52.542;13.440;2022-07-22T14:12:25;2.87;;;2.27;;
2053;SDS011;1032;52.542;13.440;2022-07-22T14:14:52;2.10;;;1.90;;
2053;SDS011;1032;52.542;13.440;2022-07-22T14:17:20;2.73;;;1.73;;
2053;SDS011;1032;52.542;13.440;2022-07-22T14:19:46;2.60;;;2.27;;
2053;SDS011;1032;52.542;13.440;2022-07-22T14:22:13;3.60;;;2.13;;
2053;SDS011;1032;52.542;13.440;2022-07-22T14:24:42;3.80;;;2.30;;
2053;SDS011;1032;52.542;13.440;2022-07-22T14:27:09;3.93;;;3.07;;
2053;SDS011;1032;52.542;13.440;2022-07-22T14:29:36;4.10;;;2.80;;
2053;SDS011;1032;52.542;13.440;2022-07-22T14:32:03;2.23;;;1.97;;
2053;SDS011;1032;52.542;13.440;2022-07-22T14:34:30;3.50;;;2.47;;
2053;SDS011;1032;52.542;13.440;2022-07-22T14:36:57;6.30;;;2.60;;
2053;SDS011;1032;52.542;13.440;2022-07-22T14:39:24;2.20;;;1.87;;
2053;SDS011;1032;52.542;13.440;2022-07-22T14:41:53;2.23;;;2.03;;
2053;SDS011;1032;52.542;13.440;2022-07-22T14:44:20;3.10;;;2.00;;
2053;SDS011;1032;52.542;13.440;2022-07-22T14:46:46;2.67;;;2.20;;
2053;SDS011;1032;52.542;13.440;2022-07-22T14:49:13;2.40;;;2.20;;
2053;SDS011;1032;52.542;13.440;2022-07-22T14:51:40;2.13;;;1.93;;
2053;SDS011;1032;52.542;13.440;2022-07-22T14:54:07;2.50;;;2.30;;
2053;SDS011;1032;52.542;13.440;2022-07-22T14:56:36;2.40;;;2.20;;
2053;SDS011;1032;52.542;13.440;2022-07-22T14:59:05;2.70;;;2.20;;
2053;SDS011;1032;52.542;13.440;2022-07-22T15:01:32;2.53;;;2.10;;
2053;SDS011;1032;52.542;13.440;2022-07-22T15:04:01;4.10;;;2.20;;
2053;SDS011;1032;52.542;13.440;2022-07-22T15:06:28;2.10;;;1.90;;
2053;SDS011;1032;52.542;13.440;2022-07-22T15:08:55;3.40;;;2.23;;
2053;SDS011;1032;52.542;13.440;2022-07-22T15:11:22;4.87;;;2.10;;
2053;SDS011;1032;52.542;13.440;2022-07-22T15:13:49;3.67;;;1.93;;